Back to Top

Language: 

My Weather Underground Personal Weather Station Historical Data with Graphs...

Delerius Weather Station Historical Data
Daily Summary for July 2, 2017 Units:  Metric    English   Both
« Previous Day
Next Day »
Daily Weekly Monthly Yearly Custom
  High: Low: Average:
Temperature: 21.8 °C 10.1 °C 16.3 °C
Dew Point: 11.9 °C 8.2 °C 10.2 °C
Humidity: 88 % 45 % 68 %
Wind Speed: 20.9 km/h 0 km/h 10.8 km/h
Wind Gust: 38.6 km/h - -
Wind:- - WNW
Pressure: 1020.5 hPa 1015.5 hPa -
Precipitation: 0 mm    
Historical Graphs
 
 
Tabular Data for July 2, 2017
Time Temperature Dew Point Pressure Wind Wind Speed Wind Gust Humidity Rainfall Rate (Hourly) solar Conditions
00:01 14.8 °C 11.9 °C 1015.5 hPa NW 12.9 km/h 29 km/h 83 % 0 mm 0 W/m2
00:06 14.8 °C 11.9 °C 1015.5 hPa WNW 11.3 km/h 29 km/h 83 % 0 mm 0 W/m2
00:12 14.8 °C 11.8 °C 1015.8 hPa WNW 11.3 km/h 22.5 km/h 82 % 0 mm 0 W/m2
00:17 14.7 °C 11.3 °C 1015.8 hPa WNW 14.5 km/h 32.2 km/h 80 % 0 mm 0 W/m2
00:22 14.6 °C 11.2 °C 1015.8 hPa WNW 16.1 km/h 32.2 km/h 80 % 0 mm 0 W/m2
00:27 14.4 °C 11 °C 1015.8 hPa WNW 16.1 km/h 29 km/h 80 % 0 mm 0 W/m2
00:32 14.3 °C 10.9 °C 1015.8 hPa WNW 14.5 km/h 25.7 km/h 80 % 0 mm 0 W/m2
00:37 14.2 °C 10.8 °C 1015.8 hPa WNW 11.3 km/h 20.9 km/h 80 % 0 mm 0 W/m2
00:42 14.1 °C 10.7 °C 1015.8 hPa WNW 11.3 km/h 24.1 km/h 80 % 0 mm 0 W/m2
00:47 13.8 °C 10.4 °C 1015.8 hPa WNW 11.3 km/h 24.1 km/h 80 % 0 mm 0 W/m2
00:52 13.7 °C 10.5 °C 1015.8 hPa WNW 9.7 km/h 19.3 km/h 81 % 0 mm 0 W/m2
00:57 13.6 °C 10.4 °C 1015.8 hPa WNW 8 km/h 16.1 km/h 81 % 0 mm 0 W/m2
01:02 13.4 °C 10.2 °C 1015.8 hPa NW 9.7 km/h 20.9 km/h 81 % 0 mm 0 W/m2
01:07 13.3 °C 10.1 °C 1015.8 hPa WNW 12.9 km/h 20.9 km/h 81 % 0 mm 0 W/m2
01:12 13.1 °C 9.9 °C 1015.8 hPa WNW 12.9 km/h 24.1 km/h 81 % 0 mm 0 W/m2
01:17 13 °C 9.8 °C 1016.1 hPa WNW 12.9 km/h 24.1 km/h 81 % 0 mm 0 W/m2
01:22 12.9 °C 9.6 °C 1016.1 hPa WNW 11.3 km/h 20.9 km/h 80 % 0 mm 0 W/m2
01:27 12.8 °C 9.4 °C 1016.5 hPa NW 12.9 km/h 22.5 km/h 80 % 0 mm 0 W/m2
01:32 12.7 °C 9.3 °C 1016.5 hPa NW 12.9 km/h 22.5 km/h 80 % 0 mm 0 W/m2
01:37 12.7 °C 9.3 °C 1016.5 hPa WNW 12.9 km/h 22.5 km/h 80 % 0 mm 0 W/m2
01:42 12.6 °C 9.2 °C 1016.5 hPa WNW 12.9 km/h 20.9 km/h 80 % 0 mm 0 W/m2
01:47 12.6 °C 9.1 °C 1016.8 hPa WNW 12.9 km/h 20.9 km/h 79 % 0 mm 0 W/m2
01:52 12.4 °C 9.1 °C 1016.8 hPa WNW 12.9 km/h 22.5 km/h 80 % 0 mm 0 W/m2
01:57 12.4 °C 9.1 °C 1016.8 hPa WNW 11.3 km/h 22.5 km/h 80 % 0 mm 0 W/m2
02:02 12.3 °C 8.9 °C 1016.8 hPa WNW 11.3 km/h 25.7 km/h 80 % 0 mm 0 W/m2
02:07 12.2 °C 8.8 °C 1016.5 hPa WNW 12.9 km/h 25.7 km/h 80 % 0 mm 0 W/m2
02:12 12.1 °C 8.9 °C 1016.5 hPa WNW 12.9 km/h 24.1 km/h 81 % 0 mm 0 W/m2
02:17 12 °C 8.8 °C 1016.8 hPa WNW 11.3 km/h 20.9 km/h 81 % 0 mm 0 W/m2
02:22 11.9 °C 8.9 °C 1016.8 hPa NW 9.7 km/h 16.1 km/h 82 % 0 mm 0 W/m2
02:27 11.8 °C 8.8 °C 1016.5 hPa WNW 9.7 km/h 16.1 km/h 82 % 0 mm 0 W/m2
02:32 11.8 °C 8.8 °C 1016.5 hPa WNW 12.9 km/h 22.5 km/h 82 % 0 mm 0 W/m2
02:37 11.7 °C 8.9 °C 1016.5 hPa WNW 12.9 km/h 22.5 km/h 83 % 0 mm 0 W/m2
02:42 11.7 °C 8.9 °C 1016.8 hPa WNW 12.9 km/h 22.5 km/h 83 % 0 mm 0 W/m2
02:47 11.7 °C 9.1 °C 1016.8 hPa WNW 12.9 km/h 22.5 km/h 84 % 0 mm 0 W/m2
02:52 11.6 °C 9 °C 1016.8 hPa WNW 14.5 km/h 25.7 km/h 84 % 0 mm 0 W/m2
02:57 11.6 °C 9 °C 1016.8 hPa WNW 12.9 km/h 25.7 km/h 84 % 0 mm 0 W/m2
03:02 11.6 °C 9 °C 1016.8 hPa WNW 11.3 km/h 24.1 km/h 84 % 0 mm 0 W/m2
03:07 11.5 °C 8.9 °C 1016.8 hPa WNW 11.3 km/h 24.1 km/h 84 % 0 mm 0 W/m2
03:12 11.5 °C 8.9 °C 1016.8 hPa WNW 9.7 km/h 19.3 km/h 84 % 0 mm 0 W/m2
03:17 11.4 °C 8.8 °C 1016.8 hPa WNW 8 km/h 19.3 km/h 84 % 0 mm 0 W/m2
03:22 11.4 °C 8.8 °C 1017.2 hPa NW 4.8 km/h 11.3 km/h 84 % 0 mm 0 W/m2
03:27 11.3 °C 8.7 °C 1017.2 hPa NW 4.8 km/h 11.3 km/h 84 % 0 mm 0 W/m2
03:32 11.3 °C 8.9 °C 1017.2 hPa WNW 6.4 km/h 12.9 km/h 85 % 0 mm 0 W/m2
03:38 11.2 °C 8.8 °C 1017.2 hPa WNW 6.4 km/h 12.9 km/h 85 % 0 mm 0 W/m2
03:43 11.1 °C 8.7 °C 1017.2 hPa WNW 6.4 km/h 17.7 km/h 85 % 0 mm 0 W/m2
03:48 11 °C 8.7 °C 1017.2 hPa WNW 8 km/h 20.9 km/h 86 % 0 mm 0 W/m2
03:54 11 °C 8.7 °C 1017.2 hPa WNW 8 km/h 20.9 km/h 86 % 0 mm 0 W/m2
03:59 11 °C 8.7 °C 1017.5 hPa WNW 4.8 km/h 12.9 km/h 86 % 0 mm 0 W/m2
04:04 10.9 °C 8.7 °C 1017.5 hPa Calm   6.4 km/h 86 % 0 mm 0 W/m2
04:10 10.8 °C 8.6 °C 1017.5 hPa NW 1.6 km/h 8 km/h 86 % 0 mm 0 W/m2
04:14 10.7 °C 8.6 °C 1017.5 hPa Calm   8 km/h 87 % 0 mm 0 W/m2
04:20 10.7 °C 8.6 °C 1017.5 hPa Calm   6.4 km/h 87 % 0 mm 0 W/m2
04:25 10.6 °C 8.5 °C 1017.5 hPa Calm   6.4 km/h 87 % 0 mm 0 W/m2
04:30 10.5 °C 8.4 °C 1017.5 hPa NW 1.6 km/h 9.7 km/h 87 % 0 mm 0 W/m2
04:35 10.5 °C 8.4 °C 1017.5 hPa NW 3.2 km/h 9.7 km/h 87 % 0 mm 0 W/m2
04:40 10.4 °C 8.3 °C 1017.5 hPa NW 3.2 km/h 12.9 km/h 87 % 0 mm 0 W/m2
04:45 10.4 °C 8.3 °C 1017.8 hPa NW 3.2 km/h 12.9 km/h 87 % 0 mm 5 W/m2
04:50 10.3 °C 8.2 °C 1017.8 hPa NW 3.2 km/h 9.7 km/h 87 % 0 mm 7 W/m2
04:55 10.3 °C 8.4 °C 1017.8 hPa NW 3.2 km/h 11.3 km/h 88 % 0 mm 9 W/m2
05:00 10.2 °C 8.3 °C 1017.8 hPa NW 3.2 km/h 11.3 km/h 88 % 0 mm 9 W/m2
05:05 10.2 °C 8.3 °C 1017.8 hPa Calm   6.4 km/h 88 % 0 mm 11 W/m2
05:10 10.2 °C 8.3 °C 1018.2 hPa Calm   4.8 km/h 88 % 0 mm 14 W/m2
05:15 10.1 °C 8.2 °C 1018.2 hPa NW 1.6 km/h 9.7 km/h 88 % 0 mm 16 W/m2
05:20 10.1 °C 8.2 °C 1018.2 hPa NW 1.6 km/h 9.7 km/h 88 % 0 mm 19 W/m2
05:25 10.1 °C 8.2 °C 1018.2 hPa NW 3.2 km/h 11.3 km/h 88 % 0 mm 28 W/m2
05:30 10.2 °C 8.3 °C 1018.2 hPa NW 4.8 km/h 11.3 km/h 88 % 0 mm 23 W/m2
05:35 10.3 °C 8.4 °C 1018.2 hPa NW 4.8 km/h 11.3 km/h 88 % 0 mm 25 W/m2
05:40 10.4 °C 8.5 °C 1018.2 hPa NW 4.8 km/h 11.3 km/h 88 % 0 mm 21 W/m2
05:45 10.6 °C 8.5 °C 1018.2 hPa NW 4.8 km/h 11.3 km/h 87 % 0 mm 21 W/m2
05:50 10.7 °C 8.6 °C 1018.5 hPa NW 6.4 km/h 12.9 km/h 87 % 0 mm 33 W/m2
05:55 10.7 °C 8.6 °C 1018.5 hPa NW 3.2 km/h 12.9 km/h 87 % 0 mm 40 W/m2
06:00 10.8 °C 8.7 °C 1018.5 hPa NNW 3.2 km/h 9.7 km/h 87 % 0 mm 111 W/m2
06:05 11 °C 8.9 °C 1018.5 hPa NNW 3.2 km/h 11.3 km/h 87 % 0 mm 116 W/m2
06:10 11.3 °C 9.1 °C 1018.5 hPa NNW 3.2 km/h 11.3 km/h 86 % 0 mm 79 W/m2
06:15 11.7 °C 9.3 °C 1018.5 hPa NNW 3.2 km/h 11.3 km/h 85 % 0 mm 116 W/m2
06:20 11.9 °C 9.1 °C 1018.5 hPa NNW 3.2 km/h 11.3 km/h 83 % 0 mm 81 W/m2
06:25 12.2 °C 9.4 °C 1018.5 hPa NW 4.8 km/h 12.9 km/h 83 % 0 mm 83 W/m2
06:28 12.3 °C 9.3 °C 1018.5 hPa NW 4.8 km/h 12.9 km/h 82 % 0 mm 88 W/m2
06:33 12.4 °C 9.4 °C 1018.5 hPa NNW 4.8 km/h 12.9 km/h 82 % 0 mm 104 W/m2
06:38 12.6 °C 9.4 °C 1018.5 hPa NNW 3.2 km/h 11.3 km/h 81 % 0 mm 102 W/m2
06:43 12.7 °C 9.5 °C 1018.5 hPa NNW 3.2 km/h 11.3 km/h 81 % 0 mm 74 W/m2
06:48 12.9 °C 9.6 °C 1018.5 hPa NNW 3.2 km/h 11.3 km/h 80 % 0 mm 102 W/m2
06:53 13.1 °C 9.7 °C 1018.5 hPa NW 3.2 km/h 11.3 km/h 80 % 0 mm 142 W/m2
06:58 13.3 °C 9.9 °C 1018.8 hPa NW 8 km/h 19.3 km/h 80 % 0 mm 142 W/m2
07:03 13.5 °C 9.9 °C 1018.5 hPa NW 9.7 km/h 22.5 km/h 79 % 0 mm 137 W/m2
07:08 13.7 °C 10.3 °C 1018.8 hPa WNW 8 km/h 22.5 km/h 80 % 0 mm 100 W/m2
07:13 13.8 °C 10.2 °C 1018.8 hPa WNW 8 km/h 19.3 km/h 79 % 0 mm 123 W/m2
07:18 13.8 °C 10.2 °C 1018.8 hPa WNW 9.7 km/h 19.3 km/h 79 % 0 mm 107 W/m2
07:23 13.7 °C 10.1 °C 1018.8 hPa WNW 11.3 km/h 22.5 km/h 79 % 0 mm 72 W/m2
07:28 13.7 °C 10.3 °C 1019.2 hPa WNW 11.3 km/h 22.5 km/h 80 % 0 mm 97 W/m2
07:33 13.6 °C 10.2 °C 1019.2 hPa WNW 11.3 km/h 22.5 km/h 80 % 0 mm 128 W/m2
07:38 13.6 °C 10.2 °C 1019.2 hPa WNW 11.3 km/h 22.5 km/h 80 % 0 mm 137 W/m2
07:43 13.6 °C 10.2 °C 1019.2 hPa WNW 9.7 km/h 19.3 km/h 80 % 0 mm 192 W/m2
07:48 13.8 °C 10.4 °C 1019.2 hPa WNW 9.7 km/h 22.5 km/h 80 % 0 mm 121 W/m2
07:53 13.9 °C 10.3 °C 1019.2 hPa WNW 9.7 km/h 22.5 km/h 79 % 0 mm 125 W/m2
07:58 14 °C 10.2 °C 1019.2 hPa WNW 12.9 km/h 20.9 km/h 78 % 0 mm 120 W/m2
08:03 14 °C 10.1 °C 1019.2 hPa WNW 14.5 km/h 30.6 km/h 77 % 0 mm 120 W/m2
08:08 14 °C 10.2 °C 1019.5 hPa WNW 12.9 km/h 30.6 km/h 78 % 0 mm 120 W/m2
08:13 13.9 °C 9.9 °C 1019.5 hPa WNW 12.9 km/h 25.7 km/h 77 % 0 mm 121 W/m2
08:17 13.9 °C 9.9 °C 1019.5 hPa WNW 12.9 km/h 25.7 km/h 77 % 0 mm 125 W/m2
08:22 14 °C 10.1 °C 1019.5 hPa WNW 12.9 km/h 24.1 km/h 77 % 0 mm 531 W/m2
08:27 14.3 °C 10.3 °C 1019.5 hPa WNW 12.9 km/h 32.2 km/h 77 % 0 mm 489 W/m2
08:32 14.8 °C 10.2 °C 1019.5 hPa WNW 16.1 km/h 33.8 km/h 74 % 0 mm 499 W/m2
08:37 15.2 °C 10.4 °C 1019.5 hPa WNW 17.7 km/h 33.8 km/h 73 % 0 mm 552 W/m2
08:42 15.5 °C 10.4 °C 1019.5 hPa WNW 17.7 km/h 37 km/h 72 % 0 mm 594 W/m2
08:47 15.5 °C 10.3 °C 1019.5 hPa WNW 17.7 km/h 37 km/h 71 % 0 mm 139 W/m2
08:52 15.4 °C 9.9 °C 1019.5 hPa WNW 17.7 km/h 33.8 km/h 70 % 0 mm 253 W/m2
08:57 15.5 °C 10.1 °C 1019.5 hPa WNW 17.7 km/h 32.2 km/h 70 % 0 mm 570 W/m2
09:02 16 °C 10.3 °C 1019.5 hPa WNW 16.1 km/h 32.2 km/h 69 % 0 mm 578 W/m2
09:07 16.3 °C 10.4 °C 1019.5 hPa NW 16.1 km/h 32.2 km/h 68 % 0 mm 580 W/m2
09:12 16.6 °C 10.7 °C 1019.5 hPa NW 16.1 km/h 29 km/h 68 % 0 mm 701 W/m2
09:17 16.9 °C 10.7 °C 1019.9 hPa NW 14.5 km/h 25.7 km/h 67 % 0 mm 738 W/m2
09:22 17 °C 10.1 °C 1019.9 hPa NW 14.5 km/h 25.7 km/h 64 % 0 mm 213 W/m2
09:27 16.6 °C 9.8 °C 1019.9 hPa NW 16.1 km/h 30.6 km/h 64 % 0 mm 195 W/m2
09:32 16.6 °C 10.2 °C 1019.9 hPa NW 14.5 km/h 30.6 km/h 66 % 0 mm 195 W/m2
09:38 16.9 °C 10.7 °C 1019.9 hPa NW 9.7 km/h 20.9 km/h 67 % 0 mm 888 W/m2
09:43 17.1 °C 10.2 °C 1019.9 hPa WNW 12.9 km/h 25.7 km/h 64 % 0 mm 802 W/m2
09:48 17.1 °C 10 °C 1020.2 hPa WNW 16.1 km/h 30.6 km/h 63 % 0 mm 149 W/m2
09:53 17.2 °C 10.1 °C 1019.9 hPa WNW 14.5 km/h 30.6 km/h 63 % 0 mm 345 W/m2
09:58 17.3 °C 9.9 °C 1019.9 hPa WNW 14.5 km/h 30.6 km/h 62 % 0 mm 206 W/m2
10:03 17.2 °C 10.1 °C 1020.2 hPa WNW 14.5 km/h 30.6 km/h 63 % 0 mm 151 W/m2
10:08 16.8 °C 9.7 °C 1020.2 hPa NW 12.9 km/h 30.6 km/h 63 % 0 mm 158 W/m2
10:13 16.6 °C 9.8 °C 1020.2 hPa NW 12.9 km/h 30.6 km/h 64 % 0 mm 172 W/m2
10:18 16.4 °C 10.1 °C 1020.2 hPa NW 11.3 km/h 22.5 km/h 66 % 0 mm 160 W/m2
10:23 16.3 °C 10.2 °C 1020.5 hPa NW 12.9 km/h 33.8 km/h 67 % 0 mm 142 W/m2
10:28 16 °C 10.1 °C 1020.5 hPa WNW 16.1 km/h 33.8 km/h 68 % 0 mm 253 W/m2
10:33 15.9 °C 10 °C 1020.5 hPa WNW 12.9 km/h 22.5 km/h 68 % 0 mm 237 W/m2
10:38 15.9 °C 10 °C 1020.5 hPa WNW 11.3 km/h 24.1 km/h 68 % 0 mm 239 W/m2
10:42 16 °C 10.1 °C 1020.2 hPa WNW 8 km/h 24.1 km/h 68 % 0 mm 221 W/m2
10:47 16.1 °C 10.2 °C 1020.2 hPa WNW 6.4 km/h 16.1 km/h 68 % 0 mm 225 W/m2
10:52 16.1 °C 9.7 °C 1020.5 hPa WNW 11.3 km/h 25.7 km/h 66 % 0 mm 179 W/m2
10:57 16.1 °C 9.7 °C 1020.5 hPa WNW 14.5 km/h 25.7 km/h 66 % 0 mm 294 W/m2
11:02 16.1 °C 9.5 °C 1020.2 hPa NW 16.1 km/h 29 km/h 65 % 0 mm 236 W/m2
11:07 16.3 °C 9.7 °C 1020.5 hPa WNW 16.1 km/h 29 km/h 65 % 0 mm 213 W/m2
11:12 16.3 °C 9.7 °C 1020.5 hPa WNW 14.5 km/h 29 km/h 65 % 0 mm 207 W/m2
11:17 16.3 °C 9.7 °C 1020.5 hPa WNW 14.5 km/h 30.6 km/h 65 % 0 mm 200 W/m2
11:19 16.2 °C 9.4 °C 1020.5 hPa WNW 16.1 km/h 30.6 km/h 64 % 0 mm 204 W/m2
11:24 16.2 °C 9.4 °C 1020.5 hPa WNW 17.7 km/h 32.2 km/h 64 % 0 mm 192 W/m2
11:29 16.3 °C 9.5 °C 1020.2 hPa WNW 14.5 km/h 32.2 km/h 64 % 0 mm 265 W/m2
11:34 16.6 °C 9.8 °C 1020.5 hPa WNW 16.1 km/h 30.6 km/h 64 % 0 mm 308 W/m2
11:39 16.7 °C 9.8 °C 1020.5 hPa WNW 17.7 km/h 32.2 km/h 64 % 0 mm 306 W/m2
11:44 16.8 °C 9.9 °C 1020.5 hPa WNW 19.3 km/h 33.8 km/h 64 % 0 mm 348 W/m2
11:49 16.8 °C 9.7 °C 1020.5 hPa WNW 19.3 km/h 37 km/h 63 % 0 mm 276 W/m2
11:50 16.9 °C 9.8 °C 1020.5 hPa WNW 19.3 km/h 37 km/h 63 % 0 mm 327 W/m2
11:55 17 °C 9.7 °C 1020.5 hPa WNW 17.7 km/h 33.8 km/h 62 % 0 mm 371 W/m2
12:00 17.1 °C 10 °C 1020.5 hPa WNW 16.1 km/h 33.8 km/h 63 % 0 mm 383 W/m2
12:05 17.4 °C 10.3 °C 1020.5 hPa WNW 14.5 km/h 30.6 km/h 63 % 0 mm 360 W/m2
12:10 17.5 °C 10.4 °C 1020.5 hPa WNW 16.1 km/h 32.2 km/h 63 % 0 mm 369 W/m2
12:15 17.5 °C 10.4 °C 1020.5 hPa WNW 19.3 km/h 37 km/h 63 % 0 mm 318 W/m2
12:20 17.4 °C 10.5 °C 1020.5 hPa WNW 19.3 km/h 37 km/h 64 % 0 mm 446 W/m2
12:25 17.6 °C 10.4 °C 1020.5 hPa NW 16.1 km/h 30.6 km/h 63 % 0 mm 404 W/m2
12:30 17.6 °C 10.4 °C 1020.5 hPa NW 17.7 km/h 35.4 km/h 63 % 0 mm 679 W/m2
12:31 17.6 °C 10.4 °C 1020.5 hPa NW 17.7 km/h 35.4 km/h 63 % 0 mm 679 W/m2
12:36 17.8 °C 10.4 °C 1020.5 hPa WNW 19.3 km/h 35.4 km/h 62 % 0 mm 1051 W/m2
12:41 18.3 °C 10.7 °C 1020.5 hPa WNW 19.3 km/h 35.4 km/h 61 % 0 mm 997 W/m2
12:46 18.6 °C 10.7 °C 1020.5 hPa West 19.3 km/h 30.6 km/h 60 % 0 mm 1011 W/m2
12:51 18.9 °C 10.7 °C 1020.5 hPa West 20.9 km/h 35.4 km/h 59 % 0 mm 998 W/m2
12:56 19.1 °C 10.7 °C 1020.2 hPa WNW 20.9 km/h 35.4 km/h 58 % 0 mm 935 W/m2
13:01 19.3 °C 11.1 °C 1020.2 hPa West 17.7 km/h 35.4 km/h 59 % 0 mm 935 W/m2
13:06 19.6 °C 11.1 °C 1020.2 hPa WNW 14.5 km/h 29 km/h 58 % 0 mm 969 W/m2
13:11 19.8 °C 11.1 °C 1020.2 hPa WNW 17.7 km/h 30.6 km/h 57 % 0 mm 1034 W/m2
13:16 19.9 °C 11.1 °C 1020.5 hPa WNW 16.1 km/h 30.6 km/h 57 % 0 mm 1034 W/m2
13:21 19.9 °C 10.8 °C 1020.5 hPa WNW 16.1 km/h 32.2 km/h 56 % 0 mm 1032 W/m2
13:26 19.9 °C 10.8 °C 1020.5 hPa WNW 17.7 km/h 35.4 km/h 56 % 0 mm 993 W/m2
13:27 19.9 °C 10.8 °C 1020.5 hPa West 17.7 km/h 35.4 km/h 56 % 0 mm 993 W/m2
13:32 20.2 °C 10.9 °C 1020.5 hPa WNW 17.7 km/h 35.4 km/h 55 % 0 mm 1121 W/m2
13:38 20.4 °C 11.1 °C 1020.5 hPa WNW 17.7 km/h 32.2 km/h 55 % 0 mm 1107 W/m2
13:40 20.6 °C 11.5 °C 1020.5 hPa WNW 17.7 km/h 37 km/h 56 % 0 mm 1150 W/m2
13:45 20.8 °C 11.2 °C 1020.5 hPa WNW 19.3 km/h 37 km/h 54 % 0 mm 972 W/m2
13:50 20.7 °C 10.8 °C 1020.2 hPa West 19.3 km/h 33.8 km/h 53 % 0 mm 951 W/m2
13:55 20.7 °C 10.8 °C 1020.2 hPa WNW 17.7 km/h 29 km/h 53 % 0 mm 935 W/m2
14:00 20.7 °C 10.8 °C 1020.2 hPa WNW 17.7 km/h 32.2 km/h 53 % 0 mm 967 W/m2
14:05 20.8 °C 11.2 °C 1020.2 hPa WNW 16.1 km/h 32.2 km/h 54 % 0 mm 949 W/m2
14:10 20.9 °C 11.2 °C 1020.2 hPa WNW 16.1 km/h 35.4 km/h 54 % 0 mm 977 W/m2
14:15 21.1 °C 10.8 °C 1020.5 hPa WNW 19.3 km/h 35.4 km/h 52 % 0 mm 946 W/m2
14:20 21.2 °C 10.9 °C 1020.2 hPa WNW 19.3 km/h 33.8 km/h 52 % 0 mm 954 W/m2
14:25 21.1 °C 10.8 °C 1020.2 hPa WNW 17.7 km/h 30.6 km/h 52 % 0 mm 1042 W/m2
14:30 21.1 °C 11.2 °C 1020.2 hPa WNW 17.7 km/h 32.2 km/h 53 % 0 mm 1058 W/m2
14:35 20.9 °C 10.7 °C 1020.5 hPa WNW 17.7 km/h 32.2 km/h 52 % 0 mm 255 W/m2
14:40 20.8 °C 10.9 °C 1020.5 hPa WNW 16.1 km/h 29 km/h 53 % 0 mm 976 W/m2
14:45 20.6 °C 10.4 °C 1020.5 hPa WNW 17.7 km/h 33.8 km/h 52 % 0 mm 255 W/m2
14:50 20.2 °C 10.3 °C 1020.5 hPa WNW 19.3 km/h 33.8 km/h 53 % 0 mm 244 W/m2
14:55 20.1 °C 10.5 °C 1020.5 hPa WNW 17.7 km/h 32.2 km/h 54 % 0 mm 244 W/m2
15:00 20.2 °C 10.6 °C 1020.2 hPa NW 16.1 km/h 29 km/h 54 % 0 mm 925 W/m2
15:05 20.4 °C 10.5 °C 1020.2 hPa WNW 16.1 km/h 30.6 km/h 53 % 0 mm 835 W/m2
15:10 20.6 °C 10.4 °C 1020.2 hPa West 16.1 km/h 30.6 km/h 52 % 0 mm 877 W/m2
15:16 20.7 °C 10.5 °C 1020.2 hPa West 16.1 km/h 29 km/h 52 % 0 mm 898 W/m2
15:21 20.9 °C 10.7 °C 1020.2 hPa West 14.5 km/h 30.6 km/h 52 % 0 mm 860 W/m2
15:26 20.9 °C 10.7 °C 1020.2 hPa West 17.7 km/h 30.6 km/h 52 % 0 mm 842 W/m2
15:31 20.8 °C 10.9 °C 1020.2 hPa West 17.7 km/h 30.6 km/h 53 % 0 mm 819 W/m2
15:36 20.8 °C 10.3 °C 1020.2 hPa West 19.3 km/h 37 km/h 51 % 0 mm 796 W/m2
15:41 20.9 °C 10.4 °C 1020.2 hPa West 17.7 km/h 37 km/h 51 % 0 mm 784 W/m2
15:46 20.9 °C 10.7 °C 1020.2 hPa West 16.1 km/h 25.7 km/h 52 % 0 mm 775 W/m2
15:51 21.1 °C 10.8 °C 1020.2 hPa West 16.1 km/h 25.7 km/h 52 % 0 mm 788 W/m2
15:56 21.3 °C 10.7 °C 1020.2 hPa West 16.1 km/h 30.6 km/h 51 % 0 mm 780 W/m2
16:01 21.3 °C 10.4 °C 1020.2 hPa WNW 16.1 km/h 33.8 km/h 50 % 0 mm 754 W/m2
16:06 21.2 °C 10.3 °C 1020.2 hPa WNW 19.3 km/h 38.6 km/h 50 % 0 mm 761 W/m2
16:11 21.3 °C 10.7 °C 1020.2 hPa WNW 19.3 km/h 38.6 km/h 51 % 0 mm 761 W/m2
16:16 21.4 °C 10.6 °C 1020.2 hPa WNW 16.1 km/h 30.6 km/h 50 % 0 mm 751 W/m2
16:21 21.4 °C 10.8 °C 1020.2 hPa West 12.9 km/h 24.1 km/h 51 % 0 mm 708 W/m2
16:26 21.6 °C 10.7 °C 1020.2 hPa WNW 12.9 km/h 24.1 km/h 50 % 0 mm 735 W/m2
16:32 21.6 °C 10.1 °C 1020.2 hPa WNW 16.1 km/h 30.6 km/h 48 % 0 mm 803 W/m2
16:37 21.6 °C 10.4 °C 1020.2 hPa WNW 17.7 km/h 32.2 km/h 49 % 0 mm 742 W/m2
16:42 21.7 °C 10.5 °C 1020.2 hPa WNW 16.1 km/h 32.2 km/h 49 % 0 mm 679 W/m2
16:47 21.7 °C 10.5 °C 1020.2 hPa WNW 14.5 km/h 22.5 km/h 49 % 0 mm 766 W/m2
16:52 21.8 °C 10.3 °C 1020.2 hPa WNW 14.5 km/h 29 km/h 48 % 0 mm 679 W/m2
16:57 21.7 °C 10.5 °C 1019.9 hPa WNW 14.5 km/h 29 km/h 49 % 0 mm 663 W/m2
17:02 21.7 °C 10.2 °C 1019.9 hPa WNW 16.1 km/h 30.6 km/h 48 % 0 mm 652 W/m2
17:07 21.7 °C 10.5 °C 1019.9 hPa WNW 16.1 km/h 30.6 km/h 49 % 0 mm 606 W/m2
17:12 21.7 °C 10.5 °C 1019.9 hPa WNW 12.9 km/h 25.7 km/h 49 % 0 mm 592 W/m2
17:17 21.7 °C 10.2 °C 1019.9 hPa WNW 14.5 km/h 29 km/h 48 % 0 mm 589 W/m2
17:22 21.7 °C 9.9 °C 1019.9 hPa WNW 14.5 km/h 29 km/h 47 % 0 mm 557 W/m2
17:27 21.7 °C 9.2 °C 1019.5 hPa WNW 14.5 km/h 24.1 km/h 45 % 0 mm 541 W/m2
17:32 21.7 °C 9.6 °C 1019.5 hPa WNW 16.1 km/h 30.6 km/h 46 % 0 mm 529 W/m2
17:37 21.6 °C 9.8 °C 1019.5 hPa WNW 16.1 km/h 30.6 km/h 47 % 0 mm 485 W/m2
17:38 21.6 °C 9.5 °C 1019.5 hPa WNW 16.1 km/h 30.6 km/h 46 % 0 mm 519 W/m2
17:43 21.5 °C 9.1 °C 1019.5 hPa WNW 16.1 km/h 29 km/h 45 % 0 mm 496 W/m2
17:45 21.5 °C 9.4 °C 1019.5 hPa West 16.1 km/h 29 km/h 46 % 0 mm 490 W/m2
17:50 21.3 °C 8.9 °C 1019.5 hPa West 16.1 km/h 29 km/h 45 % 0 mm 485 W/m2
17:55 21.1 °C 8.7 °C 1019.5 hPa West 16.1 km/h 30.6 km/h 45 % 0 mm 508 W/m2
18:00 21.1 °C 9 °C 1019.5 hPa West 17.7 km/h 32.2 km/h 46 % 0 mm 158 W/m2
18:05 20.7 °C 8.7 °C 1019.5 hPa West 17.7 km/h 32.2 km/h 46 % 0 mm 137 W/m2
18:10 20.3 °C 8.9 °C 1019.5 hPa West 17.7 km/h 30.6 km/h 48 % 0 mm 260 W/m2
18:15 20.1 °C 8.7 °C 1019.5 hPa West 17.7 km/h 30.6 km/h 48 % 0 mm 178 W/m2
18:20 19.9 °C 8.9 °C 1019.5 hPa West 16.1 km/h 25.7 km/h 49 % 0 mm 128 W/m2
18:25 19.7 °C 9 °C 1019.5 hPa West 12.9 km/h 22.5 km/h 50 % 0 mm 142 W/m2
18:30 19.6 °C 9.4 °C 1019.5 hPa West 11.3 km/h 20.9 km/h 52 % 0 mm 118 W/m2
18:35 19.5 °C 9.1 °C 1019.5 hPa West 9.7 km/h 16.1 km/h 51 % 0 mm 100 W/m2
18:40 19.4 °C 9.6 °C 1019.5 hPa West 8 km/h 16.1 km/h 53 % 0 mm 97 W/m2
18:45 19.4 °C 9.8 °C 1019.5 hPa West 6.4 km/h 12.9 km/h 54 % 0 mm 95 W/m2
18:50 19.4 °C 10.1 °C 1019.5 hPa West 6.4 km/h 16.1 km/h 55 % 0 mm 90 W/m2
18:55 19.3 °C 10.1 °C 1019.5 hPa WNW 6.4 km/h 17.7 km/h 55 % 0 mm 86 W/m2
19:00 19.3 °C 10.3 °C 1019.5 hPa West 9.7 km/h 19.3 km/h 56 % 0 mm 107 W/m2
19:05 19.2 °C 10.4 °C 1019.5 hPa West 11.3 km/h 19.3 km/h 57 % 0 mm 107 W/m2
19:10 19.1 °C 10.7 °C 1019.5 hPa West 9.7 km/h 17.7 km/h 58 % 0 mm 102 W/m2
19:15 19.1 °C 10.7 °C 1019.2 hPa West 8 km/h 19.3 km/h 58 % 0 mm 97 W/m2
19:21 19.1 °C 10.9 °C 1019.2 hPa West 8 km/h 19.3 km/h 59 % 0 mm 100 W/m2
19:26 19.2 °C 11.2 °C 1019.5 hPa West 8 km/h 16.1 km/h 60 % 0 mm 102 W/m2
19:31 19.2 °C 11.2 °C 1019.5 hPa West 9.7 km/h 16.1 km/h 60 % 0 mm 137 W/m2
19:36 19.2 °C 11.5 °C 1019.2 hPa WSW 9.7 km/h 16.1 km/h 61 % 0 mm 134 W/m2
19:41 19.3 °C 11.6 °C 1019.2 hPa West 8 km/h 14.5 km/h 61 % 0 mm 86 W/m2
19:46 19.2 °C 11.5 °C 1019.2 hPa West 9.7 km/h 20.9 km/h 61 % 0 mm 91 W/m2
19:51 19.2 °C 11.7 °C 1019.2 hPa West 11.3 km/h 20.9 km/h 62 % 0 mm 100 W/m2
19:56 19.1 °C 11.7 °C 1019.2 hPa West 11.3 km/h 20.9 km/h 62 % 0 mm 100 W/m2
20:01 19 °C 11.8 °C 1019.2 hPa West 12.9 km/h 22.5 km/h 63 % 0 mm 102 W/m2
20:06 18.9 °C 11.7 °C 1019.2 hPa West 14.5 km/h 22.5 km/h 63 % 0 mm 116 W/m2
20:11 18.9 °C 11.7 °C 1019.2 hPa WNW 12.9 km/h 20.9 km/h 63 % 0 mm 79 W/m2
20:16 18.9 °C 11.9 °C 1019.5 hPa WNW 12.9 km/h 20.9 km/h 64 % 0 mm 67 W/m2
20:21 18.8 °C 11.8 °C 1019.5 hPa WNW 11.3 km/h 20.9 km/h 64 % 0 mm 53 W/m2
20:26 18.7 °C 11.7 °C 1019.5 hPa WNW 9.7 km/h 19.3 km/h 64 % 0 mm 32 W/m2
20:31 18.6 °C 11.7 °C 1019.5 hPa WNW 9.7 km/h 19.3 km/h 64 % 0 mm 32 W/m2
20:32 18.5 °C 11.8 °C 1019.5 hPa West 9.7 km/h 19.3 km/h 65 % 0 mm 30 W/m2
20:37 18.4 °C 11.9 °C 1019.5 hPa West 6.4 km/h 16.1 km/h 66 % 0 mm 30 W/m2
20:43 18.3 °C 11.6 °C 1019.5 hPa West 6.4 km/h 12.9 km/h 65 % 0 mm 35 W/m2
20:48 18.2 °C 11.5 °C 1019.5 hPa West 8 km/h 16.1 km/h 65 % 0 mm 33 W/m2
20:53 18.1 °C 11.4 °C 1019.5 hPa West 9.7 km/h 20.9 km/h 65 % 0 mm 40 W/m2
20:58 18 °C 11.3 °C 1019.5 hPa West 6.4 km/h 20.9 km/h 65 % 0 mm 32 W/m2
21:03 18 °C 11.6 °C 1019.5 hPa West 4.8 km/h 9.7 km/h 66 % 0 mm 30 W/m2
21:08 17.9 °C 11.4 °C 1019.5 hPa West 1.6 km/h 9.7 km/h 66 % 0 mm 30 W/m2
21:13 17.8 °C 11.3 °C 1019.5 hPa West 1.6 km/h 8 km/h 66 % 0 mm 28 W/m2
21:18 17.8 °C 11.6 °C 1019.5 hPa West 1.6 km/h 8 km/h 67 % 0 mm 19 W/m2
21:23 17.7 °C 11.3 °C 1019.5 hPa West 1.6 km/h 8 km/h 66 % 0 mm 16 W/m2
21:28 17.6 °C 11.4 °C 1019.5 hPa West 1.6 km/h 8 km/h 67 % 0 mm 12 W/m2
21:33 17.4 °C 11.2 °C 1019.5 hPa Calm   3.2 km/h 67 % 0 mm 9 W/m2
21:38 17.3 °C 11.3 °C 1019.5 hPa Calm   6.4 km/h 68 % 0 mm 7 W/m2
21:43 17.2 °C 11.2 °C 1019.2 hPa Calm   6.4 km/h 68 % 0 mm 0 W/m2
21:48 17.1 °C 11.2 °C 1019.2 hPa Calm   4.8 km/h 68 % 0 mm 0 W/m2
21:53 17 °C 11.3 °C 1019.2 hPa Calm   1.6 km/h 69 % 0 mm 0 W/m2
21:58 16.9 °C 11.2 °C 1019.2 hPa Calm     69 % 0 mm 0 W/m2
22:03 16.8 °C 11.3 °C 1019.2 hPa Calm   1.6 km/h 70 % 0 mm 0 W/m2
22:08 16.6 °C 11.1 °C 1019.2 hPa Calm   3.2 km/h 70 % 0 mm 0 W/m2
22:13 16.5 °C 11.2 °C 1019.2 hPa Calm   3.2 km/h 71 % 0 mm 0 W/m2
22:18 16.3 °C 11.1 °C 1019.2 hPa West 1.6 km/h 3.2 km/h 71 % 0 mm 0 W/m2
22:23 16.3 °C 11.1 °C 1019.2 hPa West 1.6 km/h 3.2 km/h 71 % 0 mm 0 W/m2
22:24 16.3 °C 11.1 °C 1019.2 hPa West 1.6 km/h 3.2 km/h 71 % 0 mm 0 W/m2
22:29 16.3 °C 11.1 °C 1018.8 hPa Calm   3.2 km/h 71 % 0 mm 0 W/m2
22:34 16.2 °C 11.2 °C 1018.8 hPa Calm   3.2 km/h 72 % 0 mm 0 W/m2
22:39 16.2 °C 11.2 °C 1018.8 hPa Calm   3.2 km/h 72 % 0 mm 0 W/m2
22:44 16.1 °C 11.3 °C 1018.8 hPa Calm   3.2 km/h 73 % 0 mm 0 W/m2
22:49 16.1 °C 11.3 °C 1018.8 hPa Calm     73 % 0 mm 0 W/m2
22:54 15.9 °C 11.3 °C 1018.8 hPa Calm   3.2 km/h 74 % 0 mm 0 W/m2
22:59 15.8 °C 11.6 °C 1018.8 hPa Calm   3.2 km/h 76 % 0 mm 0 W/m2
23:04 15.6 °C 11.4 °C 1019.2 hPa West 1.6 km/h 6.4 km/h 76 % 0 mm 0 W/m2
23:09 15.6 °C 11.6 °C 1019.2 hPa West 3.2 km/h 8 km/h 77 % 0 mm 0 W/m2
23:14 15.4 °C 11.4 °C 1019.2 hPa West 3.2 km/h 8 km/h 77 % 0 mm 0 W/m2
23:19 15.3 °C 11.5 °C 1019.2 hPa West 4.8 km/h 8 km/h 78 % 0 mm 0 W/m2
23:24 15.2 °C 11.4 °C 1019.2 hPa West 3.2 km/h 8 km/h 78 % 0 mm 0 W/m2
23:29 15.1 °C 11.5 °C 1019.2 hPa West 1.6 km/h 8 km/h 79 % 0 mm 0 W/m2
23:34 15 °C 11.4 °C 1019.2 hPa West 1.6 km/h 8 km/h 79 % 0 mm 0 W/m2
23:39 15 °C 11.6 °C 1018.8 hPa Calm   1.6 km/h 80 % 0 mm 0 W/m2
23:44 14.9 °C 11.5 °C 1018.8 hPa Calm     80 % 0 mm 0 W/m2
23:49 14.8 °C 11.4 °C 1018.8 hPa Calm     80 % 0 mm 0 W/m2
23:52 14.8 °C 11.6 °C 1018.8 hPa Calm     81 % 0 mm 0 W/m2
23:57 14.8 °C 11.6 °C 1018.8 hPa Calm     81 % 0 mm 0 W/m2
Delerius-Weather
Compliments of Weather Underground - 2.25 mb

Data updates at regular intervals.